Portada
METAR-TAF:

METAR-TAF

Aeroports :

Bluefield, Virgínia de l'Oest, Estats Units d'Amèrica

latitud: 37-17-45N, longitud: 081-12-28W, altitud: 871 m

Observació

L'informe es va fer fa 59 minuts, a les 21:52 UTC
Vent 5 kt del Sud/Sud-Est
Temperatura 0°C
Humitat 37%
Pressió 1022 hPa
Visibilitat: 16.1 km
Cel clar

METAR: KBLF 132152Z AUTO 16005KT 10SM CLR 00/M13 A3019 RMK AO2 SLP258 T00001133

Hora: 17:51 (22:51 UTC)

Pronòstic

L'informe es va fer fa 5 hores i 25 minuts, a les 17:26 UTC
Pronòstic vàlid del 13 a les 18 UTC al 14 a les 18 UTC
Vent 5 kt del Sud-Est
Visibilitat: 10 km
Escasses núvols a una alçada de 25000 ft
A partir de les 14 a les 0700 UTC
Vent 3 kt amb direcció variable
Visibilitat: 10 km
Núvols disperses a una alçada de 25000 ft
A partir de les 14 a les 1700 UTC
Vent 7 kt del Oest/Sud-Oest
Visibilitat: 10 km
Cel ennuvolat a una alçada de 25000 ft

TAF: KBLF 131726Z 1318/1418 14005KT P6SM FEW250 FM140700 VRB03KT P6SM SCT250 FM141700 24007KT P6SM BKN250

Observacions i pronòstics meteorològics de més de 4000 aeroports (METAR i TAF).

Les estacions disponibles són els punts grocs i vermells al mapa.

Posi el ratolí al punt desitjat per veure el nom de l'estació.

Feu clic per veure les observacions i els pronòstics meteorològics.

Per canviar el mapa: feu clic els botons verds amb una creu de color negre per apropar; al botó verd amb un guió per allunyar la imatge; o en les fletxes verdes per a mapes adjacents.


METAR-TAF: